Wetterstation Vordersexau
Wetterdaten: Woche 13.06.16 - 19.06.16 (KW24)
Datum Zeit Temp. A. Feuchte A. Luftdruck Regen Wind Richtung Taupunkt Windchill Windben
13.06.2016 00:00 14,4 C 85 % 1007,6 hPa 0,0 l/m 9,1 km/h SO 11,9 C 12,9 C 5,0 km/h
13.06.2016 01:00 14,0 C 85 % 1006,7 hPa 0,0 l/m 0,0 km/h S-SO 11,5 C 14,0 C 0,0 km/h
13.06.2016 02:00 14,4 C 85 % 1005,9 hPa 0,0 l/m 6,5 km/h W 11,9 C 14,4 C 3,6 km/h
13.06.2016 03:00 14,4 C 86 % 1005,5 hPa 0,4 l/m 0,0 km/h N 12,1 C 14,4 C 0,0 km/h
13.06.2016 04:00 13,9 C 85 % 1005,1 hPa 1,2 l/m 0,0 km/h S-SO 11,4 C 13,9 C 0,0 km/h
13.06.2016 05:00 13,9 C 83 % 1004,9 hPa 1,2 l/m 0,0 km/h O-SO 11,1 C 13,9 C 0,0 km/h
13.06.2016 06:00 13,9 C 82 % 1004,1 hPa 1,2 l/m 0,0 km/h S-SO 10,9 C 13,9 C 0,0 km/h
13.06.2016 07:00 15,4 C 84 % 1003,9 hPa 0,0 l/m 0,0 km/h S-SO 12,7 C 15,4 C 0,0 km/h
13.06.2016 08:00 16,1 C 85 % 1003,8 hPa 0,0 l/m 0,0 km/h S-SW 13,6 C 16,1 C 0,0 km/h
13.06.2016 09:00 15,9 C 85 % 1003,4 hPa 0,0 l/m 19,4 km/h SW 13,4 C 11,1 C 10,8 km/h
13.06.2016 10:00 17,3 C 85 % 1003,4 hPa 0,4 l/m 25,3 km/h W-SW 14,8 C 11,7 C 14,0 km/h
13.06.2016 11:00 17,2 C 83 % 1003,0 hPa 0,4 l/m 12,3 km/h W-SW 14,3 C 14,7 C 6,8 km/h
13.06.2016 12:00 16,8 C 85 % 1002,9 hPa 2,5 l/m 5,8 km/h S-SW 14,3 C 16,8 C 3,2 km/h
13.06.2016 13:00 16,2 C 85 % 1002,3 hPa 2,9 l/m 0,0 km/h W-NW 13,7 C 16,2 C 0,0 km/h
13.06.2016 14:00 15,8 C 85 % 1002,3 hPa 1,2 l/m 9,7 km/h W-SW 13,3 C 14,1 C 5,4 km/h
13.06.2016 15:00 14,3 C 83 % 1002,3 hPa 21,1 l/m 0,0 km/h SO 11,5 C 14,3 C 0,0 km/h
13.06.2016 16:00 15,1 C 82 % 1002,2 hPa 3,3 l/m 0,0 km/h S-SW 12,0 C 15,1 C 0,0 km/h
13.06.2016 17:00 15,2 C 81 % 1001,9 hPa 5,4 l/m 0,0 km/h N-NO 12,0 C 15,2 C 0,0 km/h
13.06.2016 18:00 14,7 C 83 % 1002,1 hPa 0,4 l/m 0,0 km/h N-NO 11,8 C 14,7 C 0,0 km/h
13.06.2016 19:00 14,4 C 83 % 1002,1 hPa 0,4 l/m 0,0 km/h SO 11,5 C 14,4 C 0,0 km/h
13.06.2016 20:00 13,9 C 82 % 1002,3 hPa 0,0 l/m 3,2 km/h SO 10,9 C 13,9 C 1,8 km/h
13.06.2016 21:00 13,8 C 81 % 1002,3 hPa 0,0 l/m 0,0 km/h SO 10,6 C 13,8 C 0,0 km/h
13.06.2016 22:00 13,9 C 80 % 1002,6 hPa 0,0 l/m 0,0 km/h W 10,5 C 13,9 C 0,0 km/h
13.06.2016 23:00 13,6 C 80 % 1002,8 hPa 0,0 l/m 1,9 km/h S-SW 10,2 C 13,6 C 1,1 km/h
14.06.2016 00:00 13,8 C 81 % 1003,0 hPa 0,0 l/m 0,0 km/h S-SO 10,6 C 13,8 C 0,0 km/h
14.06.2016 01:00 13,0 C 81 % 1002,9 hPa 0,0 l/m 0,0 km/h S-SO 9,8 C 13,0 C 0,0 km/h
14.06.2016 02:00 13,2 C 80 % 1002,2 hPa 0,0 l/m 0,0 km/h S-SO 9,8 C 13,2 C 0,0 km/h
14.06.2016 03:00 13,0 C 80 % 1002,1 hPa 0,0 l/m 0,0 km/h S-SO 9,6 C 13,0 C 0,0 km/h
14.06.2016 04:00 12,9 C 79 % 1001,9 hPa 0,0 l/m 0,0 km/h S-SO 9,3 C 12,9 C 0,0 km/h
14.06.2016 05:00 12,9 C 79 % 1001,6 hPa 0,0 l/m 0,0 km/h S-SO 9,3 C 12,9 C 0,0 km/h
14.06.2016 06:00 13,2 C 78 % 1001,4 hPa 0,0 l/m 0,0 km/h SO 9,4 C 13,2 C 0,0 km/h
14.06.2016 07:00 14,6 C 77 % 1001,2 hPa 0,0 l/m 0,0 km/h SO 10,6 C 14,6 C 0,0 km/h
14.06.2016 08:00 16,8 C 79 % 1000,7 hPa 0,0 l/m 0,0 km/h SW 13,1 C 16,8 C 0,0 km/h
14.06.2016 09:00 17,6 C 86 % 1000,3 hPa 0,0 l/m 8,4 km/h W 15,2 C 16,7 C 4,7 km/h
14.06.2016 10:00 17,4 C 84 % 1000,4 hPa 0,0 l/m 2,6 km/h W-SW 14,7 C 17,4 C 1,4 km/h
14.06.2016 11:00 15,2 C 86 % 1000,4 hPa 0,0 l/m 14,9 km/h SW 12,9 C 11,5 C 8,3 km/h
14.06.2016 12:00 17,4 C 84 % 1000,4 hPa 0,8 l/m 19,4 km/h SW 14,7 C 13,0 C 10,8 km/h
14.06.2016 13:00 18,3 C 79 % 1000,4 hPa 0,0 l/m 14,3 km/h SW 14,6 C 15,4 C 7,9 km/h
14.06.2016 14:00 14,6 C 86 % 1001,0 hPa 0,0 l/m 5,2 km/h S-SW 12,3 C 14,6 C 2,9 km/h
14.06.2016 15:00 15,3 C 85 % 1000,9 hPa 0,0 l/m 18,1 km/h W-SW 12,8 C 10,6 C 10,1 km/h
14.06.2016 16:00 14,6 C 84 % 1001,0 hPa 0,0 l/m 27,9 km/h S-SW 11,9 C 7,5 C 15,5 km/h
14.06.2016 17:00 14,5 C 85 % 1001,4 hPa 0,8 l/m 4,5 km/h W 12,0 C 14,5 C 2,5 km/h
14.06.2016 18:00 14,3 C 86 % 1001,0 hPa 0,0 l/m 0,0 km/h SO 12,0 C 14,3 C 0,0 km/h
14.06.2016 19:00 15,8 C 85 % 1000,7 hPa 0,0 l/m 0,0 km/h SW 13,3 C 15,8 C 0,0 km/h
14.06.2016 20:00 14,6 C 85 % 1000,7 hPa 0,0 l/m 0,0 km/h S-SO 12,1 C 14,6 C 0,0 km/h
14.06.2016 21:00 13,2 C 86 % 1000,9 hPa 0,0 l/m 0,0 km/h N-NO 10,9 C 13,2 C 0,0 km/h
14.06.2016 22:00 12,8 C 86 % 1001,1 hPa 0,0 l/m 0,0 km/h N-NO 10,5 C 12,8 C 0,0 km/h
14.06.2016 23:00 12,4 C 86 % 1001,2 hPa 0,0 l/m 0,0 km/h S-SO 10,1 C 12,4 C 0,0 km/h
15.06.2016 00:00 12,4 C 86 % 1001,0 hPa 0,0 l/m 0,0 km/h S-SO 10,1 C 12,4 C 0,0 km/h
15.06.2016 01:00 12,2 C 86 % 1000,7 hPa 0,0 l/m 0,0 km/h NO 9,9 C 12,2 C 0,0 km/h
15.06.2016 02:00 12,1 C 86 % 1000,6 hPa 0,4 l/m 0,0 km/h O-NO 9,8 C 12,1 C 0,0 km/h
15.06.2016 03:00 11,9 C 85 % 1000,0 hPa 0,0 l/m 0,0 km/h O-NO 9,5 C 11,9 C 0,0 km/h
15.06.2016 04:00 12,1 C 84 % 999,1 hPa 0,0 l/m 0,0 km/h NO 9,5 C 12,1 C 0,0 km/h
15.06.2016 05:00 12,1 C 84 % 999,2 hPa 0,0 l/m 0,0 km/h O-NO 9,5 C 12,1 C 0,0 km/h
15.06.2016 06:00 12,4 C 83 % 999,4 hPa 0,0 l/m 0,0 km/h S-SO 9,6 C 12,4 C 0,0 km/h
15.06.2016 07:00 12,4 C 82 % 999,9 hPa 0,8 l/m 0,0 km/h SO 9,4 C 12,4 C 0,0 km/h
15.06.2016 08:00 12,4 C 83 % 1000,5 hPa 0,4 l/m 0,0 km/h W-SW 9,6 C 12,4 C 0,0 km/h
15.06.2016 09:00 12,9 C 83 % 1000,9 hPa 0,8 l/m 8,4 km/h S-SO 10,1 C 11,7 C 4,7 km/h
15.06.2016 10:00 14,3 C 86 % 1000,6 hPa 0,0 l/m 1,9 km/h S 12,0 C 14,3 C 1,1 km/h
15.06.2016 11:00 15,6 C 83 % 1001,1 hPa 0,0 l/m 11,7 km/h S 12,7 C 13,1 C 6,5 km/h
15.06.2016 12:00 15,2 C 86 % 1001,4 hPa 0,4 l/m 3,2 km/h SW 12,9 C 15,2 C 1,8 km/h
15.06.2016 13:00 20,3 C 71 % 1001,0 hPa 0,0 l/m 24,0 km/h W-SW 14,9 C 15,9 C 13,3 km/h
15.06.2016 14:00 19,4 C 68 % 1001,1 hPa 0,0 l/m 18,1 km/h S-SW 13,3 C 15,8 C 10,1 km/h
15.06.2016 15:00 21,4 C 64 % 1000,7 hPa 0,0 l/m 22,0 km/h S-SW 14,3 C 17,7 C 12,2 km/h
15.06.2016 16:00 23,1 C 56 % 1000,4 hPa 0,0 l/m 20,1 km/h W 13,8 C 20,2 C 11,2 km/h
15.06.2016 17:00 25,0 C 48 % 1000,6 hPa 0,0 l/m 13,0 km/h SW 13,2 C 23,6 C 7,2 km/h
15.06.2016 18:00 24,1 C 47 % 1000,5 hPa 0,0 l/m 16,2 km/h SW 12,1 C 22,0 C 9,0 km/h
15.06.2016 19:00 18,5 C 62 % 1000,4 hPa 0,0 l/m 9,7 km/h SO 11,1 C 17,1 C 5,4 km/h
15.06.2016 20:00 17,9 C 65 % 1000,5 hPa 0,0 l/m 0,0 km/h O 11,2 C 17,9 C 0,0 km/h
15.06.2016 21:00 14,9 C 74 % 1000,5 hPa 0,0 l/m 0,0 km/h O-SO 10,3 C 14,9 C 0,0 km/h
15.06.2016 22:00 12,7 C 81 % 1001,4 hPa 0,0 l/m 0,0 km/h SO 9,5 C 12,7 C 0,0 km/h
15.06.2016 23:00 11,3 C 83 % 1001,3 hPa 0,0 l/m 0,0 km/h SO 8,5 C 11,3 C 0,0 km/h
16.06.2016 00:00 10,9 C 85 % 1000,9 hPa 0,0 l/m 0,0 km/h O-SO 8,5 C 10,9 C 0,0 km/h
16.06.2016 01:00 11,1 C 86 % 1000,0 hPa 0,0 l/m 3,2 km/h SO 8,8 C 11,1 C 1,8 km/h
16.06.2016 02:00 11,3 C 86 % 1000,5 hPa 0,0 l/m 0,0 km/h SO 9,0 C 11,3 C 0,0 km/h
16.06.2016 03:00 11,5 C 86 % 1000,7 hPa 0,0 l/m 0,0 km/h SO 9,2 C 11,5 C 0,0 km/h
16.06.2016 04:00 11,3 C 86 % 1000,5 hPa 0,0 l/m 0,0 km/h SO 9,0 C 11,3 C 0,0 km/h
16.06.2016 05:00 11,3 C 86 % 1000,7 hPa 0,8 l/m 0,0 km/h O-SO 9,0 C 11,3 C 0,0 km/h
16.06.2016 06:00 11,4 C 85 % 1000,6 hPa 0,8 l/m 0,0 km/h O-SO 9,0 C 11,4 C 0,0 km/h
16.06.2016 07:00 11,9 C 85 % 1001,1 hPa 0,8 l/m 0,0 km/h O-SO 9,5 C 11,9 C 0,0 km/h
16.06.2016 08:00 12,6 C 84 % 1001,2 hPa 0,8 l/m 3,2 km/h O-SO 10,0 C 12,6 C 1,8 km/h
16.06.2016 09:00 13,4 C 83 % 1001,0 hPa 0,8 l/m 0,0 km/h W-SW 10,6 C 13,4 C 0,0 km/h
16.06.2016 10:00 14,9 C 85 % 1001,6 hPa 0,0 l/m 1,3 km/h W-SW 12,4 C 14,9 C 0,7 km/h
16.06.2016 11:00 16,3 C 86 % 1001,8 hPa 0,4 l/m 0,0 km/h NW 14,0 C 16,3 C 0,0 km/h
16.06.2016 12:00 19,3 C 78 % 1001,9 hPa 0,0 l/m 4,5 km/h S-SW 15,4 C 19,3 C 2,5 km/h
16.06.2016 13:00 19,3 C 75 % 1001,7 hPa 0,0 l/m 0,0 km/h S-SW 14,8 C 19,3 C 0,0 km/h
16.06.2016 14:00 18,1 C 76 % 1001,7 hPa 0,0 l/m 0,0 km/h SO 13,8 C 18,1 C 0,0 km/h
16.06.2016 15:00 20,9 C 71 % 1000,9 hPa 0,0 l/m 0,0 km/h S-SO 15,4 C 20,9 C 0,0 km/h
16.06.2016 16:00 21,8 C 63 % 1000,3 hPa 0,0 l/m 0,0 km/h W 14,4 C 21,8 C 0,0 km/h
16.06.2016 17:00 19,4 C 69 % 1000,6 hPa 0,0 l/m 0,0 km/h W 13,6 C 19,4 C 0,0 km/h
16.06.2016 18:00 18,4 C 73 % 1000,5 hPa 0,0 l/m 0,0 km/h O-SO 13,5 C 18,4 C 0,0 km/h
16.06.2016 19:00 16,9 C 81 % 1000,5 hPa 0,0 l/m 0,0 km/h N-NO 13,6 C 16,9 C 0,0 km/h
16.06.2016 20:00 15,6 C 84 % 1000,4 hPa 0,0 l/m 0,0 km/h SO 12,9 C 15,6 C 0,0 km/h
16.06.2016 21:00 14,4 C 85 % 1000,8 hPa 0,0 l/m 0,0 km/h N-NW 11,9 C 14,4 C 0,0 km/h
16.06.2016 22:00 14,0 C 86 % 1001,0 hPa 0,0 l/m 0,6 km/h NO 11,7 C 14,0 C 0,4 km/h
16.06.2016 23:00 13,3 C 86 % 1002,2 hPa 0,0 l/m 0,0 km/h O-SO 11,0 C 13,3 C 0,0 km/h
17.06.2016 00:00 12,8 C 85 % 1002,0 hPa 0,4 l/m 0,0 km/h O-SO 10,3 C 12,8 C 0,0 km/h
17.06.2016 01:00 12,4 C 85 % 1002,2 hPa 0,0 l/m 0,0 km/h O-SO 9,9 C 12,4 C 0,0 km/h
17.06.2016 02:00 12,1 C 85 % 1002,9 hPa 0,0 l/m 0,0 km/h N-NO 9,7 C 12,1 C 0,0 km/h
17.06.2016 03:00 12,3 C 85 % 1003,2 hPa 0,4 l/m 4,5 km/h S-SW 9,9 C 12,3 C 2,5 km/h
17.06.2016 04:00 12,3 C 84 % 1003,7 hPa 0,4 l/m 6,5 km/h S-SW 9,7 C 12,3 C 3,6 km/h
17.06.2016 05:00 12,6 C 86 % 1004,1 hPa 0,0 l/m 19,4 km/h W-SW 10,3 C 6,8 C 10,8 km/h
17.06.2016 06:00 12,0 C 84 % 1004,8 hPa 0,4 l/m 11,7 km/h SW 9,4 C 9,0 C 6,5 km/h
17.06.2016 07:00 12,2 C 83 % 1005,5 hPa 0,0 l/m 0,0 km/h S 9,4 C 12,2 C 0,0 km/h
17.06.2016 08:00 13,1 C 83 % 1006,3 hPa 0,4 l/m 0,0 km/h SW 10,3 C 13,1 C 0,0 km/h
17.06.2016 09:00 14,4 C 85 % 1007,3 hPa 0,0 l/m 30,5 km/h W-SW 11,9 C 6,8 C 16,9 km/h
17.06.2016 10:00 15,8 C 83 % 1007,6 hPa 0,0 l/m 19,4 km/h SW 12,9 C 10,9 C 10,8 km/h
17.06.2016 11:00 17,3 C 75 % 1008,6 hPa 0,0 l/m 18,1 km/h W 12,8 C 13,2 C 10,1 km/h
17.06.2016 12:00 16,9 C 77 % 1009,3 hPa 0,0 l/m 3,2 km/h SW 12,8 C 16,9 C 1,8 km/h
17.06.2016 13:00 17,3 C 74 % 1009,7 hPa 0,0 l/m 17,5 km/h SW 12,6 C 13,3 C 9,7 km/h
17.06.2016 14:00 17,6 C 70 % 1010,2 hPa 0,0 l/m 35,6 km/h S 12,1 C 10,6 C 19,8 km/h
17.06.2016 15:00 19,3 C 74 % 1010,3 hPa 0,4 l/m 0,0 km/h SW 14,5 C 19,3 C 0,0 km/h
17.06.2016 16:00 22,1 C 62 % 1010,4 hPa 0,0 l/m 13,0 km/h S-SO 14,5 C 20,2 C 7,2 km/h
17.06.2016 17:00 26,3 C 53 % 1010,0 hPa 0,0 l/m 9,1 km/h SW 15,9 C 25,8 C 5,0 km/h
17.06.2016 18:00 22,2 C 54 % 1010,5 hPa 0,0 l/m 24,0 km/h S 12,4 C 18,5 C 13,3 km/h
17.06.2016 19:00 21,1 C 58 % 1010,3 hPa 0,0 l/m 0,0 km/h S 12,5 C 21,1 C 0,0 km/h
17.06.2016 20:00 17,6 C 64 % 1010,7 hPa 0,0 l/m 0,0 km/h NO 10,7 C 17,6 C 0,0 km/h
17.06.2016 21:00 14,8 C 75 % 1011,4 hPa 0,0 l/m 1,9 km/h O-NO 10,4 C 14,8 C 1,1 km/h
17.06.2016 22:00 12,2 C 80 % 1012,3 hPa 0,0 l/m 0,0 km/h SO 8,9 C 12,2 C 0,0 km/h
17.06.2016 23:00 11,4 C 84 % 1012,8 hPa 0,0 l/m 0,0 km/h SO 8,8 C 11,4 C 0,0 km/h
18.06.2016 00:00 11,1 C 85 % 1012,9 hPa 0,0 l/m 0,0 km/h O-SO 8,7 C 11,1 C 0,0 km/h
18.06.2016 01:00 10,4 C 85 % 1013,6 hPa 0,0 l/m 0,0 km/h O-SO 8,0 C 10,4 C 0,0 km/h
18.06.2016 02:00 10,7 C 86 % 1013,8 hPa 0,0 l/m 0,0 km/h NO 8,5 C 10,7 C 0,0 km/h
18.06.2016 03:00 11,2 C 86 % 1013,5 hPa 0,0 l/m 0,0 km/h NO 8,9 C 11,2 C 0,0 km/h
18.06.2016 04:00 11,1 C 86 % 1013,9 hPa 0,0 l/m 0,0 km/h O-NO 8,8 C 11,1 C 0,0 km/h
18.06.2016 05:00 10,5 C 85 % 1014,3 hPa 0,0 l/m 0,0 km/h SO 8,1 C 10,5 C 0,0 km/h
18.06.2016 06:00 12,5 C 84 % 1014,6 hPa 0,0 l/m 2,6 km/h S 9,9 C 12,5 C 1,4 km/h
18.06.2016 07:00 15,9 C 81 % 1015,1 hPa 0,0 l/m 1,9 km/h W-SW 12,6 C 15,9 C 1,1 km/h
18.06.2016 08:00 15,9 C 76 % 1015,6 hPa 0,0 l/m 3,2 km/h W 11,7 C 15,9 C 1,8 km/h
18.06.2016 09:00 17,4 C 72 % 1015,8 hPa 0,0 l/m 14,9 km/h W 12,3 C 14,1 C 8,3 km/h
18.06.2016 10:00 19,3 C 67 % 1015,9 hPa 0,0 l/m 1,9 km/h S-SW 13,0 C 19,3 C 1,1 km/h
18.06.2016 11:00 19,9 C 65 % 1016,1 hPa 0,0 l/m 3,2 km/h SW 13,1 C 19,9 C 1,8 km/h
18.06.2016 12:00 22,9 C 60 % 1015,8 hPa 0,0 l/m 9,7 km/h S-SW 14,7 C 21,9 C 5,4 km/h
18.06.2016 13:00 22,7 C 60 % 1015,5 hPa 0,0 l/m 11,0 km/h W 14,5 C 21,4 C 6,1 km/h
18.06.2016 14:00 22,3 C 57 % 1015,4 hPa 0,0 l/m 1,9 km/h W 13,4 C 22,3 C 1,1 km/h
18.06.2016 15:00 18,2 C 73 % 1016,0 hPa 0,4 l/m 28,5 km/h N-NO 13,3 C 12,4 C 15,8 km/h
18.06.2016 16:00 15,9 C 76 % 1016,6 hPa 0,0 l/m 0,0 km/h SO 11,7 C 15,9 C 0,0 km/h
18.06.2016 17:00 22,3 C 69 % 1016,2 hPa 0,4 l/m 0,6 km/h W-SW 16,3 C 22,3 C 0,4 km/h
18.06.2016 18:00 23,6 C 57 % 1016,4 hPa 0,0 l/m 1,9 km/h N-NO 14,6 C 23,6 C 1,1 km/h
18.06.2016 19:00 17,6 C 72 % 1016,9 hPa 0,0 l/m 14,9 km/h S-SO 12,5 C 14,4 C 8,3 km/h
18.06.2016 20:00 14,2 C 81 % 1017,8 hPa 0,8 l/m 0,0 km/h O-SO 11,0 C 14,2 C 0,0 km/h
18.06.2016 21:00 12,9 C 85 % 1017,9 hPa 0,8 l/m 0,0 km/h O-SO 10,4 C 12,9 C 0,0 km/h
18.06.2016 22:00 12,4 C 85 % 1018,4 hPa 0,0 l/m 0,0 km/h O-SO 9,9 C 12,4 C 0,0 km/h
18.06.2016 23:00 11,9 C 86 % 1018,7 hPa 0,0 l/m 0,0 km/h O-SO 9,6 C 11,9 C 0,0 km/h
19.06.2016 00:00 11,6 C 86 % 1019,0 hPa 0,0 l/m 0,0 km/h O-SO 9,3 C 11,6 C 0,0 km/h
19.06.2016 01:00 12,3 C 86 % 1019,1 hPa 0,0 l/m 0,0 km/h O-SO 10,0 C 12,3 C 0,0 km/h
19.06.2016 02:00 12,4 C 85 % 1019,0 hPa 0,0 l/m 0,0 km/h O-SO 9,9 C 12,4 C 0,0 km/h
19.06.2016 03:00 12,6 C 85 % 1019,1 hPa 0,0 l/m 0,0 km/h O-SO 10,1 C 12,6 C 0,0 km/h
19.06.2016 04:00 12,6 C 85 % 1019,3 hPa 0,0 l/m 0,0 km/h O-SO 10,1 C 12,6 C 0,0 km/h
19.06.2016 05:00 12,5 C 85 % 1019,7 hPa 0,4 l/m 0,0 km/h O-SO 10,0 C 12,5 C 0,0 km/h
19.06.2016 06:00 13,2 C 85 % 1020,1 hPa 0,0 l/m 0,0 km/h O-SO 10,7 C 13,2 C 0,0 km/h
19.06.2016 07:00 13,6 C 84 % 1020,4 hPa 0,0 l/m 0,0 km/h N 10,9 C 13,6 C 0,0 km/h
19.06.2016 08:00 13,6 C 83 % 1020,8 hPa 2,9 l/m 0,0 km/h N 10,8 C 13,6 C 0,0 km/h
19.06.2016 09:00 16,4 C 85 % 1021,3 hPa 0,4 l/m 0,0 km/h N 13,9 C 16,4 C 0,0 km/h
19.06.2016 10:00 20,2 C 67 % 1021,3 hPa 0,0 l/m 0,0 km/h N-NO 13,9 C 20,2 C 0,0 km/h
19.06.2016 11:00 17,6 C 68 % 1021,4 hPa 0,0 l/m 0,0 km/h N-NO 11,6 C 17,6 C 0,0 km/h
19.06.2016 12:00 19,2 C 64 % 1021,2 hPa 0,0 l/m 0,6 km/h W-NW 12,2 C 19,2 C 0,4 km/h
19.06.2016 13:00 22,0 C 55 % 1020,9 hPa 0,0 l/m 3,2 km/h N 12,5 C 22,0 C 1,8 km/h
19.06.2016 14:00 22,4 C 51 % 1021,0 hPa 0,0 l/m 0,0 km/h N 11,8 C 22,4 C 0,0 km/h
19.06.2016 15:00 22,4 C 49 % 1021,1 hPa 0,0 l/m 0,0 km/h N-NO 11,2 C 22,4 C 0,0 km/h
19.06.2016 16:00 22,6 C 52 % 1021,2 hPa 0,0 l/m 21,4 km/h N-NO 12,2 C 19,4 C 11,9 km/h
19.06.2016 17:00 22,1 C 50 % 1021,1 hPa 0,0 l/m 0,0 km/h W 11,2 C 22,1 C 0,0 km/h
19.06.2016 18:00 25,3 C 47 % 1020,8 hPa 0,0 l/m 5,8 km/h N 13,2 C 25,3 C 3,2 km/h
19.06.2016 19:00 19,1 C 59 % 1021,2 hPa 0,0 l/m 0,0 km/h N-NO 10,9 C 19,1 C 0,0 km/h
19.06.2016 20:00 15,8 C 68 % 1021,3 hPa 0,0 l/m 0,0 km/h N-NO 9,9 C 15,8 C 0,0 km/h
19.06.2016 21:00 13,3 C 74 % 1022,2 hPa 0,0 l/m 0,0 km/h N-NO 8,8 C 13,3 C 0,0 km/h
19.06.2016 22:00 11,5 C 80 % 1022,4 hPa 0,0 l/m 0,0 km/h N-NO 8,2 C 11,5 C 0,0 km/h
19.06.2016 23:00 10,0 C 82 % 1022,5 hPa 0,0 l/m 0,0 km/h N-NO 7,1 C 10,0 C 0,0 km/h
Min-Datum _ 19.06.16 15.06.16 15.06.16 - 13.06.16 - 19.06.16 17.06.16 13.06.16
_ Min-Zeit 23:41 18:41 04:41 - 01:41 - 23:41 09:41 01:41
Minimum _ 10,0 C 47 % 999,1 hPa - 0,0 km/h - 7,1 C 6,8 C 0,0 km/h
Max-Datum _ 17.06.16 13.06.16 19.06.16 13.06.16 17.06.16 - 18.06.16 17.06.16 17.06.16
_ Max-Zeit 17:41 03:41 23:41 15:41 14:41 - 17:41 17:41 14:41
Maximum _ 26,3 C 86 % 1022,5 hPa 21,1 l/m 35,6 km/h
S
- 16,3 C 25,8 C 19,8 km/h
S
Durchschnitt _ 15,5 C 78 % 1007,2 hPa #60,1 l/m 4,2 km/h O-SO 11,5 C 14,7 C 2,4 km/h
www.sexauwetter.de